This is the latest recevied weather packets stored in our database for station/object SP3ZBZ-13. If no packets are shown the sender has not sent any weather packets the latest 10 day(s).
| Time | Temp. | Humidity | Pressure | Rain* | Wind** | Luminosity | Snow |
|---|---|---|---|---|---|---|---|
| 1777579909 | 12.22° C | 45% | 1023.7 hPa | - | - | - | - |
| 1777579008 | 12.78° C | 42% | 1023.7 hPa | - | - | - | - |
| 1777578108 | 13.33° C | 40% | 1023.7 hPa | - | - | - | - |
| 1777577207 | 13.89° C | 41% | 1023.6 hPa | - | - | - | - |
| 1777576305 | 13.89° C | 41% | 1023.5 hPa | - | - | - | - |
| 1777575404 | 13.89° C | 43% | 1023.4 hPa | - | - | - | - |
| 1777574504 | 14.44° C | 43% | 1023.5 hPa | - | - | - | - |
| 1777573603 | 14.44° C | 43% | 1023.3 hPa | - | - | 1 W/m² | - |
| 1777572702 | 15.56° C | 40% | 1023.2 hPa | - | - | 4 W/m² | - |
| 1777571801 | 16.11° C | 40% | 1023.1 hPa | - | - | 11 W/m² | - |
| 1777570900 | 16.11° C | 40% | 1022.9 hPa | - | - | 21 W/m² | - |
| 1777569999 | 16.67° C | 39% | 1022.9 hPa | - | - | 32 W/m² | - |
| 1777569098 | 17.22° C | 38% | 1023 hPa | - | - | 40 W/m² | - |
| 1777568197 | 17.22° C | 37% | 1023.1 hPa | - | - | 57 W/m² | - |
| 1777567297 | 16.67° C | 39% | 1023.1 hPa | - | - | 76 W/m² | - |
| 1777566395 | 16.67° C | 41% | 1023.1 hPa | - | - | 122 W/m² | - |
| 1777565494 | 16.67° C | 40% | 1023.4 hPa | - | - | 86 W/m² | - |
| 1777564593 | 17.22° C | 38% | 1023.6 hPa | - | - | 183 W/m² | - |
| 1777563693 | 17.22° C | 39% | 1023.5 hPa | - | - | 201 W/m² | - |
| 1777562791 | 16.67° C | 41% | 1023.6 hPa | - | - | 170 W/m² | - |
| 1777561890 | 16.67° C | 43% | 1023.7 hPa | - | - | 274 W/m² | - |
| 1777560990 | 16.11° C | 44% | 1023.8 hPa | - | - | 142 W/m² | - |
| 1777560089 | 16.11° C | 43% | 1024 hPa | - | - | 178 W/m² | - |
| 1777559188 | 16.11° C | 44% | 1024.1 hPa | - | - | 251 W/m² | - |
| 1777558287 | 16.11° C | 42% | 1024.3 hPa | - | - | 215 W/m² | - |
* Rain since midnight (hover to see other rain measurements)
** Current wind speed in m/s (hover to see current wind gust speed)